sensor_id;sensor_type;location;lat;lon;timestamp;temperature;humidity
52867;DHT22;38739;53.324;6.862;2023-04-24T00:01:43;11.20;99.90
52867;DHT22;38739;53.324;6.862;2023-04-24T00:04:09;11.10;99.90
52867;DHT22;38739;53.324;6.862;2023-04-24T00:06:37;11.10;99.90
52867;DHT22;38739;53.324;6.862;2023-04-24T00:09:03;11.10;99.90
52867;DHT22;38739;53.324;6.862;2023-04-24T00:11:29;11.10;99.90
52867;DHT22;38739;53.324;6.862;2023-04-24T00:13:56;11.10;99.90
52867;DHT22;38739;53.324;6.862;2023-04-24T00:16:22;11.10;99.90
52867;DHT22;38739;53.324;6.862;2023-04-24T00:18:48;11.20;99.90
52867;DHT22;38739;53.324;6.862;2023-04-24T00:21:15;11.10;99.90
52867;DHT22;38739;53.324;6.862;2023-04-24T00:23:43;11.20;99.90
52867;DHT22;38739;53.324;6.862;2023-04-24T00:26:09;11.20;99.90
52867;DHT22;38739;53.324;6.862;2023-04-24T00:28:35;11.20;99.90
52867;DHT22;38739;53.324;6.862;2023-04-24T00:31:01;11.20;99.90
52867;DHT22;38739;53.324;6.862;2023-04-24T00:33:26;11.20;99.90
52867;DHT22;38739;53.324;6.862;2023-04-24T00:35:52;11.20;99.90
52867;DHT22;38739;53.324;6.862;2023-04-24T00:38:18;11.20;99.90
52867;DHT22;38739;53.324;6.862;2023-04-24T00:40:44;11.10;99.90
52867;DHT22;38739;53.324;6.862;2023-04-24T00:43:10;11.10;99.90
52867;DHT22;38739;53.324;6.862;2023-04-24T00:45:36;11.10;99.90
52867;DHT22;38739;53.324;6.862;2023-04-24T00:48:02;11.00;99.90
52867;DHT22;38739;53.324;6.862;2023-04-24T00:50:28;11.00;99.90
52867;DHT22;38739;53.324;6.862;2023-04-24T00:52:54;11.00;99.90
52867;DHT22;38739;53.324;6.862;2023-04-24T00:55:20;10.90;99.90
52867;DHT22;38739;53.324;6.862;2023-04-24T00:57:46;10.90;99.90
52867;DHT22;38739;53.324;6.862;2023-04-24T01:00:15;10.80;99.90
52867;DHT22;38739;53.324;6.862;2023-04-24T01:02:43;10.80;99.90
52867;DHT22;38739;53.324;6.862;2023-04-24T01:05:14;10.80;99.90
52867;DHT22;38739;53.324;6.862;2023-04-24T01:07:45;10.70;99.90
52867;DHT22;38739;53.324;6.862;2023-04-24T01:10:13;10.70;99.90
52867;DHT22;38739;53.324;6.862;2023-04-24T01:12:40;10.60;99.90
52867;DHT22;38739;53.324;6.862;2023-04-24T01:15:06;10.60;99.90
52867;DHT22;38739;53.324;6.862;2023-04-24T01:17:33;10.60;99.90
52867;DHT22;38739;53.324;6.862;2023-04-24T01:19:59;10.60;99.90
52867;DHT22;38739;53.324;6.862;2023-04-24T01:22:26;10.50;99.90
52867;DHT22;38739;53.324;6.862;2023-04-24T01:24:53;10.60;99.90
52867;DHT22;38739;53.324;6.862;2023-04-24T01:27:19;10.50;99.90
52867;DHT22;38739;53.324;6.862;2023-04-24T01:29:45;10.50;99.90
52867;DHT22;38739;53.324;6.862;2023-04-24T01:32:13;10.40;99.90
52867;DHT22;38739;53.324;6.862;2023-04-24T01:34:38;10.40;99.90
52867;DHT22;38739;53.324;6.862;2023-04-24T01:37:05;10.40;99.90
52867;DHT22;38739;53.324;6.862;2023-04-24T01:39:32;10.30;99.90
52867;DHT22;38739;53.324;6.862;2023-04-24T01:41:59;10.30;99.90
52867;DHT22;38739;53.324;6.862;2023-04-24T01:44:26;10.30;99.90
52867;DHT22;38739;53.324;6.862;2023-04-24T01:46:52;10.20;99.90
52867;DHT22;38739;53.324;6.862;2023-04-24T01:49:19;10.20;99.90
52867;DHT22;38739;53.324;6.862;2023-04-24T01:51:45;10.20;99.90
52867;DHT22;38739;53.324;6.862;2023-04-24T01:54:11;10.10;99.90
52867;DHT22;38739;53.324;6.862;2023-04-24T01:56:41;10.10;99.90
52867;DHT22;38739;53.324;6.862;2023-04-24T01:59:10;10.10;99.90
52867;DHT22;38739;53.324;6.862;2023-04-24T02:01:37;10.10;99.90
52867;DHT22;38739;53.324;6.862;2023-04-24T02:04:04;10.20;99.90
52867;DHT22;38739;53.324;6.862;2023-04-24T02:06:30;10.20;99.90
52867;DHT22;38739;53.324;6.862;2023-04-24T02:08:57;10.10;99.90
52867;DHT22;38739;53.324;6.862;2023-04-24T02:11:23;10.10;99.90
52867;DHT22;38739;53.324;6.862;2023-04-24T02:13:49;10.20;99.90
52867;DHT22;38739;53.324;6.862;2023-04-24T02:16:16;10.10;99.90
52867;DHT22;38739;53.324;6.862;2023-04-24T02:18:41;10.10;99.90
52867;DHT22;38739;53.324;6.862;2023-04-24T02:21:07;10.10;99.90
52867;DHT22;38739;53.324;6.862;2023-04-24T02:23:33;10.10;99.90
52867;DHT22;38739;53.324;6.862;2023-04-24T02:25:58;10.20;99.90
52867;DHT22;38739;53.324;6.862;2023-04-24T02:28:24;10.20;99.90
52867;DHT22;38739;53.324;6.862;2023-04-24T02:30:50;10.10;99.90
52867;DHT22;38739;53.324;6.862;2023-04-24T02:33:16;10.10;99.90
52867;DHT22;38739;53.324;6.862;2023-04-24T02:35:42;10.10;99.90
52867;DHT22;38739;53.324;6.862;2023-04-24T02:38:07;10.10;99.90
52867;DHT22;38739;53.324;6.862;2023-04-24T02:40:33;10.10;99.90
52867;DHT22;38739;53.324;6.862;2023-04-24T02:42:59;10.10;99.90
52867;DHT22;38739;53.324;6.862;2023-04-24T02:45:24;10.20;99.90
52867;DHT22;38739;53.324;6.862;2023-04-24T02:47:50;10.20;99.90
52867;DHT22;38739;53.324;6.862;2023-04-24T02:50:16;10.10;99.90
52867;DHT22;38739;53.324;6.862;2023-04-24T02:52:41;10.10;99.90
52867;DHT22;38739;53.324;6.862;2023-04-24T02:55:07;10.10;99.90
52867;DHT22;38739;53.324;6.862;2023-04-24T02:57:33;10.20;99.90
52867;DHT22;38739;53.324;6.862;2023-04-24T02:59:59;10.20;99.90
52867;DHT22;38739;53.324;6.862;2023-04-24T03:02:25;10.20;99.90
52867;DHT22;38739;53.324;6.862;2023-04-24T03:04:51;10.20;99.90
52867;DHT22;38739;53.324;6.862;2023-04-24T03:07:16;10.20;99.90
52867;DHT22;38739;53.324;6.862;2023-04-24T03:09:42;10.20;99.90
52867;DHT22;38739;53.324;6.862;2023-04-24T03:12:08;10.20;99.90
52867;DHT22;38739;53.324;6.862;2023-04-24T03:14:34;10.20;99.90
52867;DHT22;38739;53.324;6.862;2023-04-24T03:17:00;10.20;99.90
52867;DHT22;38739;53.324;6.862;2023-04-24T03:19:26;10.20;99.90
52867;DHT22;38739;53.324;6.862;2023-04-24T03:21:52;10.20;99.90
52867;DHT22;38739;53.324;6.862;2023-04-24T03:24:18;10.20;99.90
52867;DHT22;38739;53.324;6.862;2023-04-24T03:26:43;10.30;99.90
52867;DHT22;38739;53.324;6.862;2023-04-24T03:29:09;10.30;99.90
52867;DHT22;38739;53.324;6.862;2023-04-24T03:31:35;10.30;99.90
52867;DHT22;38739;53.324;6.862;2023-04-24T03:34:00;10.30;99.90
52867;DHT22;38739;53.324;6.862;2023-04-24T03:36:26;10.30;99.90
52867;DHT22;38739;53.324;6.862;2023-04-24T03:38:53;10.30;99.90
52867;DHT22;38739;53.324;6.862;2023-04-24T03:41:18;10.30;99.90
52867;DHT22;38739;53.324;6.862;2023-04-24T03:43:44;10.30;99.90
52867;DHT22;38739;53.324;6.862;2023-04-24T03:46:10;10.30;99.90
52867;DHT22;38739;53.324;6.862;2023-04-24T03:48:35;10.20;99.90
52867;DHT22;38739;53.324;6.862;2023-04-24T03:51:01;10.30;99.90
52867;DHT22;38739;53.324;6.862;2023-04-24T03:53:27;10.30;99.90
52867;DHT22;38739;53.324;6.862;2023-04-24T03:55:53;10.30;99.90
52867;DHT22;38739;53.324;6.862;2023-04-24T03:58:19;10.30;99.90
52867;DHT22;38739;53.324;6.862;2023-04-24T04:00:44;10.30;99.90
52867;DHT22;38739;53.324;6.862;2023-04-24T04:03:13;10.30;99.90
52867;DHT22;38739;53.324;6.862;2023-04-24T04:05:40;10.30;99.90
52867;DHT22;38739;53.324;6.862;2023-04-24T04:08:05;10.30;99.90
52867;DHT22;38739;53.324;6.862;2023-04-24T04:10:31;10.20;99.90
52867;DHT22;38739;53.324;6.862;2023-04-24T04:12:57;10.20;99.90
52867;DHT22;38739;53.324;6.862;2023-04-24T04:15:22;10.20;99.90
52867;DHT22;38739;53.324;6.862;2023-04-24T04:17:48;10.20;99.90
52867;DHT22;38739;53.324;6.862;2023-04-24T04:20:14;10.20;99.90
52867;DHT22;38739;53.324;6.862;2023-04-24T04:22:39;10.20;99.90
52867;DHT22;38739;53.324;6.862;2023-04-24T04:25:05;10.20;99.90
52867;DHT22;38739;53.324;6.862;2023-04-24T04:27:32;10.20;99.90
52867;DHT22;38739;53.324;6.862;2023-04-24T04:29:58;10.20;99.90
52867;DHT22;38739;53.324;6.862;2023-04-24T04:32:26;10.20;99.90
52867;DHT22;38739;53.324;6.862;2023-04-24T04:34:52;10.20;99.90
52867;DHT22;38739;53.324;6.862;2023-04-24T04:37:18;10.20;99.90
52867;DHT22;38739;53.324;6.862;2023-04-24T04:39:44;10.10;99.90
52867;DHT22;38739;53.324;6.862;2023-04-24T04:42:10;10.10;99.90
52867;DHT22;38739;53.324;6.862;2023-04-24T04:44:35;10.10;99.90
52867;DHT22;38739;53.324;6.862;2023-04-24T04:47:02;10.10;99.90
52867;DHT22;38739;53.324;6.862;2023-04-24T04:49:31;10.10;99.90
52867;DHT22;38739;53.324;6.862;2023-04-24T04:51:57;10.10;99.90
52867;DHT22;38739;53.324;6.862;2023-04-24T04:54:23;10.10;99.90
52867;DHT22;38739;53.324;6.862;2023-04-24T04:56:52;10.10;99.90
52867;DHT22;38739;53.324;6.862;2023-04-24T04:59:17;10.10;99.90
52867;DHT22;38739;53.324;6.862;2023-04-24T05:01:43;10.10;99.90
52867;DHT22;38739;53.324;6.862;2023-04-24T05:04:09;10.10;99.90
52867;DHT22;38739;53.324;6.862;2023-04-24T05:06:34;10.10;99.90
52867;DHT22;38739;53.324;6.862;2023-04-24T05:09:00;10.00;99.90
52867;DHT22;38739;53.324;6.862;2023-04-24T05:11:26;10.00;99.90
52867;DHT22;38739;53.324;6.862;2023-04-24T05:13:52;10.00;99.90
52867;DHT22;38739;53.324;6.862;2023-04-24T05:16:17;10.00;99.90
52867;DHT22;38739;53.324;6.862;2023-04-24T05:18:43;10.00;99.90
52867;DHT22;38739;53.324;6.862;2023-04-24T05:21:09;10.00;99.90
52867;DHT22;38739;53.324;6.862;2023-04-24T05:23:34;10.00;99.90
52867;DHT22;38739;53.324;6.862;2023-04-24T05:26:00;9.90;99.90
52867;DHT22;38739;53.324;6.862;2023-04-24T05:28:26;9.90;99.90
52867;DHT22;38739;53.324;6.862;2023-04-24T05:30:55;9.90;99.90
52867;DHT22;38739;53.324;6.862;2023-04-24T05:33:21;9.90;99.90
52867;DHT22;38739;53.324;6.862;2023-04-24T05:35:48;9.90;99.90
52867;DHT22;38739;53.324;6.862;2023-04-24T05:38:14;9.90;99.90
52867;DHT22;38739;53.324;6.862;2023-04-24T05:40:43;9.90;99.90
52867;DHT22;38739;53.324;6.862;2023-04-24T05:43:08;9.90;99.90
52867;DHT22;38739;53.324;6.862;2023-04-24T05:45:34;9.90;99.90
52867;DHT22;38739;53.324;6.862;2023-04-24T05:48:02;9.90;99.90
52867;DHT22;38739;53.324;6.862;2023-04-24T05:50:27;9.90;99.90
52867;DHT22;38739;53.324;6.862;2023-04-24T05:52:53;9.90;99.90
52867;DHT22;38739;53.324;6.862;2023-04-24T05:55:19;9.90;99.90
52867;DHT22;38739;53.324;6.862;2023-04-24T05:57:45;9.90;99.90
52867;DHT22;38739;53.324;6.862;2023-04-24T06:00:11;9.90;99.90
52867;DHT22;38739;53.324;6.862;2023-04-24T06:02:38;9.90;99.90
52867;DHT22;38739;53.324;6.862;2023-04-24T06:05:04;9.90;99.90
52867;DHT22;38739;53.324;6.862;2023-04-24T06:07:30;9.90;99.90
52867;DHT22;38739;53.324;6.862;2023-04-24T06:09:56;10.00;99.90
52867;DHT22;38739;53.324;6.862;2023-04-24T06:12:22;10.00;99.90
52867;DHT22;38739;53.324;6.862;2023-04-24T06:14:48;10.10;99.90
52867;DHT22;38739;53.324;6.862;2023-04-24T06:17:15;10.10;99.90
52867;DHT22;38739;53.324;6.862;2023-04-24T06:19:40;10.20;99.90
52867;DHT22;38739;53.324;6.862;2023-04-24T06:22:06;10.20;99.90
52867;DHT22;38739;53.324;6.862;2023-04-24T06:24:34;10.30;99.90
52867;DHT22;38739;53.324;6.862;2023-04-24T06:26:59;10.30;99.90
52867;DHT22;38739;53.324;6.862;2023-04-24T06:29:26;10.40;99.90
52867;DHT22;38739;53.324;6.862;2023-04-24T06:31:52;10.50;99.90
52867;DHT22;38739;53.324;6.862;2023-04-24T06:34:18;10.50;99.90
52867;DHT22;38739;53.324;6.862;2023-04-24T06:36:44;10.60;99.90
52867;DHT22;38739;53.324;6.862;2023-04-24T06:39:09;10.70;99.90
52867;DHT22;38739;53.324;6.862;2023-04-24T06:41:35;10.70;99.90
52867;DHT22;38739;53.324;6.862;2023-04-24T06:44:01;10.70;99.90
52867;DHT22;38739;53.324;6.862;2023-04-24T06:46:27;10.70;99.90
52867;DHT22;38739;53.324;6.862;2023-04-24T06:48:53;10.70;99.90
52867;DHT22;38739;53.324;6.862;2023-04-24T06:51:26;10.70;99.90
52867;DHT22;38739;53.324;6.862;2023-04-24T06:53:53;10.70;99.90
52867;DHT22;38739;53.324;6.862;2023-04-24T06:56:19;10.70;99.90
52867;DHT22;38739;53.324;6.862;2023-04-24T06:58:46;10.70;99.90
52867;DHT22;38739;53.324;6.862;2023-04-24T07:01:11;10.70;99.90
52867;DHT22;38739;53.324;6.862;2023-04-24T07:03:37;10.80;99.90
52867;DHT22;38739;53.324;6.862;2023-04-24T07:06:04;10.80;99.90
52867;DHT22;38739;53.324;6.862;2023-04-24T07:08:30;10.80;99.90
52867;DHT22;38739;53.324;6.862;2023-04-24T07:10:57;10.90;99.90
52867;DHT22;38739;53.324;6.862;2023-04-24T07:13:23;10.90;99.90
52867;DHT22;38739;53.324;6.862;2023-04-24T07:15:49;10.80;99.90
52867;DHT22;38739;53.324;6.862;2023-04-24T07:18:20;10.80;99.90
52867;DHT22;38739;53.324;6.862;2023-04-24T07:20:45;10.70;99.90
52867;DHT22;38739;53.324;6.862;2023-04-24T07:23:11;10.70;99.90
52867;DHT22;38739;53.324;6.862;2023-04-24T07:25:37;10.70;99.90
52867;DHT22;38739;53.324;6.862;2023-04-24T07:28:04;10.70;99.90
52867;DHT22;38739;53.324;6.862;2023-04-24T07:30:30;10.70;99.90
52867;DHT22;38739;53.324;6.862;2023-04-24T07:32:58;10.70;99.90
52867;DHT22;38739;53.324;6.862;2023-04-24T07:35:24;10.60;99.90
52867;DHT22;38739;53.324;6.862;2023-04-24T07:37:54;10.70;99.90
52867;DHT22;38739;53.324;6.862;2023-04-24T07:40:20;10.70;99.90
52867;DHT22;38739;53.324;6.862;2023-04-24T07:42:46;10.80;99.90
52867;DHT22;38739;53.324;6.862;2023-04-24T07:45:14;10.80;99.90
52867;DHT22;38739;53.324;6.862;2023-04-24T07:47:41;10.80;99.90
52867;DHT22;38739;53.324;6.862;2023-04-24T07:50:09;10.70;99.90
52867;DHT22;38739;53.324;6.862;2023-04-24T07:52:36;10.70;99.90
52867;DHT22;38739;53.324;6.862;2023-04-24T07:55:02;10.80;99.90
52867;DHT22;38739;53.324;6.862;2023-04-24T07:57:28;10.80;99.90
52867;DHT22;38739;53.324;6.862;2023-04-24T07:59:54;10.80;99.90
52867;DHT22;38739;53.324;6.862;2023-04-24T08:02:20;10.80;99.90
52867;DHT22;38739;53.324;6.862;2023-04-24T08:04:54;10.80;99.90
52867;DHT22;38739;53.324;6.862;2023-04-24T08:07:20;10.80;99.90
52867;DHT22;38739;53.324;6.862;2023-04-24T08:09:46;10.80;99.90
52867;DHT22;38739;53.324;6.862;2023-04-24T08:12:11;10.70;99.90
52867;DHT22;38739;53.324;6.862;2023-04-24T08:14:37;10.70;99.90
52867;DHT22;38739;53.324;6.862;2023-04-24T08:17:03;10.60;99.90
52867;DHT22;38739;53.324;6.862;2023-04-24T08:19:29;10.60;99.90
52867;DHT22;38739;53.324;6.862;2023-04-24T08:21:54;10.50;99.90
52867;DHT22;38739;53.324;6.862;2023-04-24T08:24:20;10.50;99.90
52867;DHT22;38739;53.324;6.862;2023-04-24T08:26:49;10.40;99.90
52867;DHT22;38739;53.324;6.862;2023-04-24T08:29:19;10.40;99.90
52867;DHT22;38739;53.324;6.862;2023-04-24T08:31:45;10.30;99.90
52867;DHT22;38739;53.324;6.862;2023-04-24T08:34:10;10.30;99.90
52867;DHT22;38739;53.324;6.862;2023-04-24T08:36:37;10.30;99.90
52867;DHT22;38739;53.324;6.862;2023-04-24T08:39:03;10.30;99.90
52867;DHT22;38739;53.324;6.862;2023-04-24T08:41:30;10.30;99.90
52867;DHT22;38739;53.324;6.862;2023-04-24T08:43:56;10.20;99.90
52867;DHT22;38739;53.324;6.862;2023-04-24T08:46:24;10.20;99.90
52867;DHT22;38739;53.324;6.862;2023-04-24T08:48:51;10.20;99.90
52867;DHT22;38739;53.324;6.862;2023-04-24T08:51:18;10.20;99.90
52867;DHT22;38739;53.324;6.862;2023-04-24T08:53:44;10.20;99.90
52867;DHT22;38739;53.324;6.862;2023-04-24T08:56:11;10.10;99.90
52867;DHT22;38739;53.324;6.862;2023-04-24T08:58:38;10.10;99.90
52867;DHT22;38739;53.324;6.862;2023-04-24T09:01:04;10.10;99.90
52867;DHT22;38739;53.324;6.862;2023-04-24T09:03:31;10.10;99.90
52867;DHT22;38739;53.324;6.862;2023-04-24T09:05:59;10.10;99.90
52867;DHT22;38739;53.324;6.862;2023-04-24T09:08:26;10.00;99.90
52867;DHT22;38739;53.324;6.862;2023-04-24T09:10:53;10.00;99.90
52867;DHT22;38739;53.324;6.862;2023-04-24T09:13:20;10.00;99.90
52867;DHT22;38739;53.324;6.862;2023-04-24T09:15:46;10.00;99.90
52867;DHT22;38739;53.324;6.862;2023-04-24T09:18:12;10.00;99.90
52867;DHT22;38739;53.324;6.862;2023-04-24T09:20:57;10.00;99.90
52867;DHT22;38739;53.324;6.862;2023-04-24T09:23:28;10.00;99.90
52867;DHT22;38739;53.324;6.862;2023-04-24T09:25:56;10.00;99.90
52867;DHT22;38739;53.324;6.862;2023-04-24T09:28:34;10.00;99.90
52867;DHT22;38739;53.324;6.862;2023-04-24T09:31:04;9.90;99.90
52867;DHT22;38739;53.324;6.862;2023-04-24T09:33:30;10.00;99.90
52867;DHT22;38739;53.324;6.862;2023-04-24T09:35:56;9.90;99.90
52867;DHT22;38739;53.324;6.862;2023-04-24T09:38:38;10.00;99.90
52867;DHT22;38739;53.324;6.862;2023-04-24T09:41:08;9.90;99.90
52867;DHT22;38739;53.324;6.862;2023-04-24T09:43:34;9.90;99.90
52867;DHT22;38739;53.324;6.862;2023-04-24T09:46:05;9.90;99.90
52867;DHT22;38739;53.324;6.862;2023-04-24T09:48:36;9.90;99.90
52867;DHT22;38739;53.324;6.862;2023-04-24T09:51:04;9.90;99.90
52867;DHT22;38739;53.324;6.862;2023-04-24T09:53:32;9.90;99.90
52867;DHT22;38739;53.324;6.862;2023-04-24T09:56:08;9.90;99.90
52867;DHT22;38739;53.324;6.862;2023-04-24T09:58:35;9.80;99.90
52867;DHT22;38739;53.324;6.862;2023-04-24T10:01:02;9.90;99.90
52867;DHT22;38739;53.324;6.862;2023-04-24T10:03:32;9.80;99.90
52867;DHT22;38739;53.324;6.862;2023-04-24T10:06:01;9.80;99.90
52867;DHT22;38739;53.324;6.862;2023-04-24T10:08:34;9.80;99.90
52867;DHT22;38739;53.324;6.862;2023-04-24T10:11:00;9.80;99.90
52867;DHT22;38739;53.324;6.862;2023-04-24T10:13:26;9.70;99.90
52867;DHT22;38739;53.324;6.862;2023-04-24T10:15:53;9.70;99.90
52867;DHT22;38739;53.324;6.862;2023-04-24T10:18:20;9.70;99.90
52867;DHT22;38739;53.324;6.862;2023-04-24T10:20:46;9.70;99.90
52867;DHT22;38739;53.324;6.862;2023-04-24T10:23:12;9.70;99.90
52867;DHT22;38739;53.324;6.862;2023-04-24T10:25:38;9.70;99.90
52867;DHT22;38739;53.324;6.862;2023-04-24T10:28:05;9.60;99.90
52867;DHT22;38739;53.324;6.862;2023-04-24T10:30:32;9.60;99.90
52867;DHT22;38739;53.324;6.862;2023-04-24T10:33:06;9.60;99.90
52867;DHT22;38739;53.324;6.862;2023-04-24T10:35:37;9.60;99.90
52867;DHT22;38739;53.324;6.862;2023-04-24T10:38:08;9.60;99.90
52867;DHT22;38739;53.324;6.862;2023-04-24T10:40:35;9.60;99.90
52867;DHT22;38739;53.324;6.862;2023-04-24T10:43:06;9.60;99.90
52867;DHT22;38739;53.324;6.862;2023-04-24T10:45:33;9.70;99.90
52867;DHT22;38739;53.324;6.862;2023-04-24T10:48:03;9.80;99.90
52867;DHT22;38739;53.324;6.862;2023-04-24T10:50:43;9.90;99.90
52867;DHT22;38739;53.324;6.862;2023-04-24T10:53:20;10.00;99.90
52867;DHT22;38739;53.324;6.862;2023-04-24T10:55:51;10.00;99.90
52867;DHT22;38739;53.324;6.862;2023-04-24T10:58:21;10.00;99.90
52867;DHT22;38739;53.324;6.862;2023-04-24T11:00:59;10.00;99.90
52867;DHT22;38739;53.324;6.862;2023-04-24T11:03:50;10.10;99.90
52867;DHT22;38739;53.324;6.862;2023-04-24T11:06:15;10.10;99.90
52867;DHT22;38739;53.324;6.862;2023-04-24T11:08:45;10.10;99.90
52867;DHT22;38739;53.324;6.862;2023-04-24T11:11:13;10.10;99.90
52867;DHT22;38739;53.324;6.862;2023-04-24T11:16:21;9.90;99.90
52867;DHT22;38739;53.324;6.862;2023-04-24T11:18:52;10.00;99.90
52867;DHT22;38739;53.324;6.862;2023-04-24T11:21:20;10.10;99.90
52867;DHT22;38739;53.324;6.862;2023-04-24T11:23:47;10.10;99.90
52867;DHT22;38739;53.324;6.862;2023-04-24T11:26:23;10.10;99.90
52867;DHT22;38739;53.324;6.862;2023-04-24T11:29:06;10.10;99.90
52867;DHT22;38739;53.324;6.862;2023-04-24T11:31:36;10.10;99.90
52867;DHT22;38739;53.324;6.862;2023-04-24T11:34:10;10.20;99.90
52867;DHT22;38739;53.324;6.862;2023-04-24T11:36:36;10.20;99.90
52867;DHT22;38739;53.324;6.862;2023-04-24T11:39:02;10.20;99.90
52867;DHT22;38739;53.324;6.862;2023-04-24T11:41:28;10.30;99.90
52867;DHT22;38739;53.324;6.862;2023-04-24T11:43:54;10.30;99.90
52867;DHT22;38739;53.324;6.862;2023-04-24T11:46:21;10.40;99.90
52867;DHT22;38739;53.324;6.862;2023-04-24T11:48:47;10.50;99.90
52867;DHT22;38739;53.324;6.862;2023-04-24T11:51:16;10.50;99.90
52867;DHT22;38739;53.324;6.862;2023-04-24T11:53:41;10.60;99.90
52867;DHT22;38739;53.324;6.862;2023-04-24T11:56:09;10.70;99.90
52867;DHT22;38739;53.324;6.862;2023-04-24T11:58:38;10.70;99.90
52867;DHT22;38739;53.324;6.862;2023-04-24T12:01:04;10.80;99.90
52867;DHT22;38739;53.324;6.862;2023-04-24T12:03:31;10.90;99.90
52867;DHT22;38739;53.324;6.862;2023-04-24T12:06:07;11.00;99.90
52867;DHT22;38739;53.324;6.862;2023-04-24T12:08:36;11.10;99.90
52867;DHT22;38739;53.324;6.862;2023-04-24T12:11:03;11.10;99.90
52867;DHT22;38739;53.324;6.862;2023-04-24T12:13:29;11.10;99.90
52867;DHT22;38739;53.324;6.862;2023-04-24T12:15:57;11.10;99.90
52867;DHT22;38739;53.324;6.862;2023-04-24T12:18:23;11.00;99.90
52867;DHT22;38739;53.324;6.862;2023-04-24T12:20:49;10.90;99.90
52867;DHT22;38739;53.324;6.862;2023-04-24T12:23:15;10.90;99.90
52867;DHT22;38739;53.324;6.862;2023-04-24T12:25:41;10.80;99.90
52867;DHT22;38739;53.324;6.862;2023-04-24T12:28:12;10.80;99.90
52867;DHT22;38739;53.324;6.862;2023-04-24T12:30:43;10.70;99.90
52867;DHT22;38739;53.324;6.862;2023-04-24T12:33:17;10.70;99.90
52867;DHT22;38739;53.324;6.862;2023-04-24T12:35:43;10.70;99.90
52867;DHT22;38739;53.324;6.862;2023-04-24T12:38:11;10.70;99.90
52867;DHT22;38739;53.324;6.862;2023-04-24T12:40:38;10.50;99.90
52867;DHT22;38739;53.324;6.862;2023-04-24T12:43:15;10.40;99.90
52867;DHT22;38739;53.324;6.862;2023-04-24T12:45:41;10.40;99.90
52867;DHT22;38739;53.324;6.862;2023-04-24T12:48:07;10.30;99.90
52867;DHT22;38739;53.324;6.862;2023-04-24T12:50:33;10.30;99.90
52867;DHT22;38739;53.324;6.862;2023-04-24T12:52:58;10.20;99.90
52867;DHT22;38739;53.324;6.862;2023-04-24T12:55:24;10.20;99.90
52867;DHT22;38739;53.324;6.862;2023-04-24T12:57:50;10.20;99.90
52867;DHT22;38739;53.324;6.862;2023-04-24T13:00:16;10.10;99.90
52867;DHT22;38739;53.324;6.862;2023-04-24T13:02:42;10.10;99.90
52867;DHT22;38739;53.324;6.862;2023-04-24T13:05:08;10.00;99.90
52867;DHT22;38739;53.324;6.862;2023-04-24T13:07:34;9.90;99.90
52867;DHT22;38739;53.324;6.862;2023-04-24T13:10:00;9.90;99.90
52867;DHT22;38739;53.324;6.862;2023-04-24T13:12:26;9.80;99.90
52867;DHT22;38739;53.324;6.862;2023-04-24T13:14:52;9.80;99.90
52867;DHT22;38739;53.324;6.862;2023-04-24T13:17:18;9.70;99.90
52867;DHT22;38739;53.324;6.862;2023-04-24T13:19:44;9.70;99.90
52867;DHT22;38739;53.324;6.862;2023-04-24T13:22:11;9.70;99.90
52867;DHT22;38739;53.324;6.862;2023-04-24T13:24:38;9.70;99.90
52867;DHT22;38739;53.324;6.862;2023-04-24T13:27:05;9.70;99.90
52867;DHT22;38739;53.324;6.862;2023-04-24T13:29:31;9.80;99.90
52867;DHT22;38739;53.324;6.862;2023-04-24T13:31:56;9.80;99.90
52867;DHT22;38739;53.324;6.862;2023-04-24T13:34:26;9.80;99.90
52867;DHT22;38739;53.324;6.862;2023-04-24T13:36:56;9.80;99.90
52867;DHT22;38739;53.324;6.862;2023-04-24T13:39:23;9.80;99.90
52867;DHT22;38739;53.324;6.862;2023-04-24T13:41:49;9.80;99.90
52867;DHT22;38739;53.324;6.862;2023-04-24T13:44:16;9.80;99.90
52867;DHT22;38739;53.324;6.862;2023-04-24T13:46:43;9.80;99.90
52867;DHT22;38739;53.324;6.862;2023-04-24T13:49:10;9.80;99.90
52867;DHT22;38739;53.324;6.862;2023-04-24T13:51:36;9.70;99.90
52867;DHT22;38739;53.324;6.862;2023-04-24T13:54:02;9.60;99.90
52867;DHT22;38739;53.324;6.862;2023-04-24T13:56:28;9.60;99.90
52867;DHT22;38739;53.324;6.862;2023-04-24T13:58:53;9.50;99.90
52867;DHT22;38739;53.324;6.862;2023-04-24T14:01:20;9.50;99.90
52867;DHT22;38739;53.324;6.862;2023-04-24T14:03:49;9.60;99.90
52867;DHT22;38739;53.324;6.862;2023-04-24T14:06:15;9.70;99.90
52867;DHT22;38739;53.324;6.862;2023-04-24T14:08:41;9.90;99.90
52867;DHT22;38739;53.324;6.862;2023-04-24T14:11:07;10.00;99.90
52867;DHT22;38739;53.324;6.862;2023-04-24T14:13:33;10.10;99.90
52867;DHT22;38739;53.324;6.862;2023-04-24T14:15:58;10.00;99.90
52867;DHT22;38739;53.324;6.862;2023-04-24T14:18:24;10.00;99.90
52867;DHT22;38739;53.324;6.862;2023-04-24T14:20:50;10.00;99.90
52867;DHT22;38739;53.324;6.862;2023-04-24T14:23:16;9.90;99.90
52867;DHT22;38739;53.324;6.862;2023-04-24T14:25:41;9.80;99.90
52867;DHT22;38739;53.324;6.862;2023-04-24T14:28:07;9.70;99.90
52867;DHT22;38739;53.324;6.862;2023-04-24T14:30:33;9.60;99.90
52867;DHT22;38739;53.324;6.862;2023-04-24T14:32:59;9.50;99.90
52867;DHT22;38739;53.324;6.862;2023-04-24T14:35:24;9.40;99.90
52867;DHT22;38739;53.324;6.862;2023-04-24T14:37:51;9.30;99.90
52867;DHT22;38739;53.324;6.862;2023-04-24T14:40:16;9.30;99.90
52867;DHT22;38739;53.324;6.862;2023-04-24T14:42:42;9.20;99.90
52867;DHT22;38739;53.324;6.862;2023-04-24T14:45:08;9.20;99.90
52867;DHT22;38739;53.324;6.862;2023-04-24T14:47:34;9.20;99.90
52867;DHT22;38739;53.324;6.862;2023-04-24T14:50:00;9.20;99.90
52867;DHT22;38739;53.324;6.862;2023-04-24T14:52:25;9.20;99.90
52867;DHT22;38739;53.324;6.862;2023-04-24T14:54:51;9.20;99.90
52867;DHT22;38739;53.324;6.862;2023-04-24T14:57:17;9.30;99.90
52867;DHT22;38739;53.324;6.862;2023-04-24T14:59:42;9.30;99.90
52867;DHT22;38739;53.324;6.862;2023-04-24T15:02:08;9.30;99.90
52867;DHT22;38739;53.324;6.862;2023-04-24T15:04:33;9.30;99.90
52867;DHT22;38739;53.324;6.862;2023-04-24T15:07:00;9.30;99.90
52867;DHT22;38739;53.324;6.862;2023-04-24T15:09:26;9.30;99.90
52867;DHT22;38739;53.324;6.862;2023-04-24T15:11:52;9.30;99.90
52867;DHT22;38739;53.324;6.862;2023-04-24T15:14:18;9.30;99.90
52867;DHT22;38739;53.324;6.862;2023-04-24T15:16:44;9.30;99.90
52867;DHT22;38739;53.324;6.862;2023-04-24T15:19:10;9.30;99.90
52867;DHT22;38739;53.324;6.862;2023-04-24T15:21:37;9.30;99.90
52867;DHT22;38739;53.324;6.862;2023-04-24T15:24:04;9.30;99.90
52867;DHT22;38739;53.324;6.862;2023-04-24T15:29:04;9.30;99.90
52867;DHT22;38739;53.324;6.862;2023-04-24T15:31:30;9.20;99.90
52867;DHT22;38739;53.324;6.862;2023-04-24T15:33:55;9.10;99.90
52867;DHT22;38739;53.324;6.862;2023-04-24T15:36:21;9.10;99.90
52867;DHT22;38739;53.324;6.862;2023-04-24T15:38:47;9.00;99.90